sensor_id;sensor_type;location;lat;lon;timestamp;P1;durP1;ratioP1;P2;durP2;ratioP2
60819;SDS011;46641;48.904;9.126;2024-03-17T00:01:17;5.00;;;4.60;;
60819;SDS011;46641;48.904;9.126;2024-03-17T00:06:07;6.20;;;5.60;;
60819;SDS011;46641;48.904;9.126;2024-03-17T00:10:59;5.70;;;5.10;;
60819;SDS011;46641;48.904;9.126;2024-03-17T00:15:49;5.90;;;5.40;;
60819;SDS011;46641;48.904;9.126;2024-03-17T00:20:40;5.90;;;5.40;;
60819;SDS011;46641;48.904;9.126;2024-03-17T00:25:31;5.77;;;5.27;;
60819;SDS011;46641;48.904;9.126;2024-03-17T00:30:21;7.23;;;6.10;;
60819;SDS011;46641;48.904;9.126;2024-03-17T00:35:12;6.63;;;5.93;;
60819;SDS011;46641;48.904;9.126;2024-03-17T00:40:10;6.07;;;5.43;;
60819;SDS011;46641;48.904;9.126;2024-03-17T00:45:01;6.33;;;5.73;;
60819;SDS011;46641;48.904;9.126;2024-03-17T00:49:52;6.50;;;5.80;;
60819;SDS011;46641;48.904;9.126;2024-03-17T00:54:42;5.87;;;5.37;;
60819;SDS011;46641;48.904;9.126;2024-03-17T00:59:33;6.23;;;5.60;;
60819;SDS011;46641;48.904;9.126;2024-03-17T01:04:24;6.00;;;5.43;;
60819;SDS011;46641;48.904;9.126;2024-03-17T01:09:14;6.40;;;5.80;;
60819;SDS011;46641;48.904;9.126;2024-03-17T01:14:04;6.15;;;5.63;;
60819;SDS011;46641;48.904;9.126;2024-03-17T01:18:55;12.15;;;6.93;;
60819;SDS011;46641;48.904;9.126;2024-03-17T01:23:45;12.20;;;6.68;;
60819;SDS011;46641;48.904;9.126;2024-03-17T01:28:37;14.40;;;6.80;;
60819;SDS011;46641;48.904;9.126;2024-03-17T01:33:27;11.77;;;6.28;;
60819;SDS011;46641;48.904;9.126;2024-03-17T01:38:18;14.10;;;6.53;;
60819;SDS011;46641;48.904;9.126;2024-03-17T01:43:11;8.68;;;6.00;;
60819;SDS011;46641;48.904;9.126;2024-03-17T01:48:02;8.27;;;6.37;;
60819;SDS011;46641;48.904;9.126;2024-03-17T01:53:00;8.53;;;5.63;;
60819;SDS011;46641;48.904;9.126;2024-03-17T01:57:54;8.73;;;6.23;;
60819;SDS011;46641;48.904;9.126;2024-03-17T02:02:45;8.63;;;5.90;;
60819;SDS011;46641;48.904;9.126;2024-03-17T02:07:35;10.73;;;7.00;;
60819;SDS011;46641;48.904;9.126;2024-03-17T02:12:28;9.70;;;6.33;;
60819;SDS011;46641;48.904;9.126;2024-03-17T02:17:18;11.70;;;5.40;;
60819;SDS011;46641;48.904;9.126;2024-03-17T02:22:14;11.77;;;5.57;;
60819;SDS011;46641;48.904;9.126;2024-03-17T02:27:05;6.97;;;6.07;;
60819;SDS011;46641;48.904;9.126;2024-03-17T02:31:56;8.93;;;5.32;;
60819;SDS011;46641;48.904;9.126;2024-03-17T02:36:46;8.60;;;5.63;;
60819;SDS011;46641;48.904;9.126;2024-03-17T02:41:36;14.52;;;6.95;;
60819;SDS011;46641;48.904;9.126;2024-03-17T02:46:27;12.52;;;6.00;;
60819;SDS011;46641;48.904;9.126;2024-03-17T02:51:18;18.27;;;6.93;;
60819;SDS011;46641;48.904;9.126;2024-03-17T02:56:09;10.30;;;5.80;;
60819;SDS011;46641;48.904;9.126;2024-03-17T03:00:59;13.83;;;5.70;;
60819;SDS011;46641;48.904;9.126;2024-03-17T03:05:50;12.77;;;5.90;;
60819;SDS011;46641;48.904;9.126;2024-03-17T03:10:43;9.77;;;5.43;;
60819;SDS011;46641;48.904;9.126;2024-03-17T03:15:36;7.80;;;5.17;;
60819;SDS011;46641;48.904;9.126;2024-03-17T03:20:27;6.77;;;5.63;;
60819;SDS011;46641;48.904;9.126;2024-03-17T03:25:18;13.80;;;5.90;;
60819;SDS011;46641;48.904;9.126;2024-03-17T03:30:08;13.23;;;5.97;;
60819;SDS011;46641;48.904;9.126;2024-03-17T03:34:59;8.67;;;5.60;;
60819;SDS011;46641;48.904;9.126;2024-03-17T03:39:50;5.47;;;4.93;;
60819;SDS011;46641;48.904;9.126;2024-03-17T03:44:41;6.33;;;5.53;;
60819;SDS011;46641;48.904;9.126;2024-03-17T03:49:31;8.10;;;5.18;;
60819;SDS011;46641;48.904;9.126;2024-03-17T03:54:21;6.67;;;5.50;;
60819;SDS011;46641;48.904;9.126;2024-03-17T03:59:11;7.70;;;5.68;;
60819;SDS011;46641;48.904;9.126;2024-03-17T04:04:02;5.57;;;5.03;;
60819;SDS011;46641;48.904;9.126;2024-03-17T04:08:53;6.13;;;5.53;;
60819;SDS011;46641;48.904;9.126;2024-03-17T04:13:43;5.88;;;4.22;;
60819;SDS011;46641;48.904;9.126;2024-03-17T04:18:34;4.43;;;4.03;;
60819;SDS011;46641;48.904;9.126;2024-03-17T04:23:27;4.80;;;4.37;;
60819;SDS011;46641;48.904;9.126;2024-03-17T04:28:18;5.30;;;4.80;;
60819;SDS011;46641;48.904;9.126;2024-03-17T04:33:12;9.73;;;5.57;;
60819;SDS011;46641;48.904;9.126;2024-03-17T04:38:02;10.00;;;5.27;;
60819;SDS011;46641;48.904;9.126;2024-03-17T04:42:53;8.17;;;5.30;;
60819;SDS011;46641;48.904;9.126;2024-03-17T04:47:43;6.80;;;5.40;;
60819;SDS011;46641;48.904;9.126;2024-03-17T04:52:34;6.37;;;5.17;;
60819;SDS011;46641;48.904;9.126;2024-03-17T04:57:24;7.00;;;5.10;;
60819;SDS011;46641;48.904;9.126;2024-03-17T05:02:14;7.97;;;4.55;;
60819;SDS011;46641;48.904;9.126;2024-03-17T05:07:04;7.97;;;5.45;;
60819;SDS011;46641;48.904;9.126;2024-03-17T05:11:55;9.17;;;4.53;;
60819;SDS011;46641;48.904;9.126;2024-03-17T05:16:47;9.95;;;5.05;;
60819;SDS011;46641;48.904;9.126;2024-03-17T05:21:38;12.27;;;5.20;;
60819;SDS011;46641;48.904;9.126;2024-03-17T05:26:29;5.60;;;5.10;;
60819;SDS011;46641;48.904;9.126;2024-03-17T05:31:21;13.37;;;6.07;;
60819;SDS011;46641;48.904;9.126;2024-03-17T05:36:12;13.80;;;6.20;;
60819;SDS011;46641;48.904;9.126;2024-03-17T05:41:03;16.77;;;6.40;;
60819;SDS011;46641;48.904;9.126;2024-03-17T05:45:58;18.37;;;5.87;;
60819;SDS011;46641;48.904;9.126;2024-03-17T05:50:50;10.63;;;5.07;;
60819;SDS011;46641;48.904;9.126;2024-03-17T05:55:41;6.47;;;4.55;;
60819;SDS011;46641;48.904;9.126;2024-03-17T06:00:34;5.23;;;4.47;;
60819;SDS011;46641;48.904;9.126;2024-03-17T06:05:25;5.60;;;4.20;;
60819;SDS011;46641;48.904;9.126;2024-03-17T06:10:15;4.13;;;3.83;;
60819;SDS011;46641;48.904;9.126;2024-03-17T06:15:05;6.03;;;5.30;;
60819;SDS011;46641;48.904;9.126;2024-03-17T06:19:56;6.23;;;5.67;;
60819;SDS011;46641;48.904;9.126;2024-03-17T06:24:47;5.33;;;4.83;;
60819;SDS011;46641;48.904;9.126;2024-03-17T06:29:37;4.80;;;4.40;;
60819;SDS011;46641;48.904;9.126;2024-03-17T06:34:27;4.10;;;3.80;;
60819;SDS011;46641;48.904;9.126;2024-03-17T06:39:18;2.90;;;2.70;;
60819;SDS011;46641;48.904;9.126;2024-03-17T06:44:11;4.30;;;3.90;;
60819;SDS011;46641;48.904;9.126;2024-03-17T06:49:01;4.15;;;3.75;;
60819;SDS011;46641;48.904;9.126;2024-03-17T06:53:51;4.53;;;4.13;;
60819;SDS011;46641;48.904;9.126;2024-03-17T06:58:42;3.93;;;3.60;;
60819;SDS011;46641;48.904;9.126;2024-03-17T07:03:32;4.22;;;3.83;;
60819;SDS011;46641;48.904;9.126;2024-03-17T07:08:23;4.87;;;4.50;;
60819;SDS011;46641;48.904;9.126;2024-03-17T07:13:15;4.40;;;4.00;;
60819;SDS011;46641;48.904;9.126;2024-03-17T07:18:05;4.63;;;4.23;;
60819;SDS011;46641;48.904;9.126;2024-03-17T07:22:55;4.90;;;4.50;;
60819;SDS011;46641;48.904;9.126;2024-03-17T07:27:46;8.02;;;5.75;;
60819;SDS011;46641;48.904;9.126;2024-03-17T07:32:36;5.60;;;5.10;;
60819;SDS011;46641;48.904;9.126;2024-03-17T07:37:26;7.53;;;5.80;;
60819;SDS011;46641;48.904;9.126;2024-03-17T07:42:17;6.85;;;6.10;;
60819;SDS011;46641;48.904;9.126;2024-03-17T07:47:07;7.13;;;5.80;;
60819;SDS011;46641;48.904;9.126;2024-03-17T07:51:57;6.87;;;6.23;;
60819;SDS011;46641;48.904;9.126;2024-03-17T07:56:48;7.87;;;7.07;;
60819;SDS011;46641;48.904;9.126;2024-03-17T08:01:38;9.90;;;8.90;;
60819;SDS011;46641;48.904;9.126;2024-03-17T08:06:29;10.73;;;9.60;;
60819;SDS011;46641;48.904;9.126;2024-03-17T08:11:19;12.33;;;11.00;;
60819;SDS011;46641;48.904;9.126;2024-03-17T08:16:09;12.83;;;11.53;;
60819;SDS011;46641;48.904;9.126;2024-03-17T08:21:03;10.53;;;9.50;;
60819;SDS011;46641;48.904;9.126;2024-03-17T08:25:56;9.53;;;8.63;;
60819;SDS011;46641;48.904;9.126;2024-03-17T08:30:55;10.37;;;9.37;;
60819;SDS011;46641;48.904;9.126;2024-03-17T08:35:59;12.10;;;10.77;;
60819;SDS011;46641;48.904;9.126;2024-03-17T08:40:52;10.77;;;9.63;;
60819;SDS011;46641;48.904;9.126;2024-03-17T08:45:43;12.30;;;11.00;;
60819;SDS011;46641;48.904;9.126;2024-03-17T08:50:33;13.10;;;10.75;;
60819;SDS011;46641;48.904;9.126;2024-03-17T08:55:24;11.60;;;10.40;;
60819;SDS011;46641;48.904;9.126;2024-03-17T09:00:14;12.20;;;11.00;;
60819;SDS011;46641;48.904;9.126;2024-03-17T09:05:05;11.97;;;10.77;;
60819;SDS011;46641;48.904;9.126;2024-03-17T09:09:55;12.73;;;11.43;;
60819;SDS011;46641;48.904;9.126;2024-03-17T09:14:48;11.63;;;9.48;;
60819;SDS011;46641;48.904;9.126;2024-03-17T09:19:39;12.27;;;11.10;;
60819;SDS011;46641;48.904;9.126;2024-03-17T09:24:29;11.60;;;10.40;;
60819;SDS011;46641;48.904;9.126;2024-03-17T09:29:19;10.60;;;9.60;;
60819;SDS011;46641;48.904;9.126;2024-03-17T09:34:10;12.77;;;10.00;;
60819;SDS011;46641;48.904;9.126;2024-03-17T09:39:00;10.43;;;9.47;;
60819;SDS011;46641;48.904;9.126;2024-03-17T09:43:54;10.47;;;9.37;;
60819;SDS011;46641;48.904;9.126;2024-03-17T09:48:44;11.53;;;8.73;;
60819;SDS011;46641;48.904;9.126;2024-03-17T09:53:34;9.60;;;8.70;;
60819;SDS011;46641;48.904;9.126;2024-03-17T09:58:25;10.50;;;8.97;;
60819;SDS011;46641;48.904;9.126;2024-03-17T10:03:38;8.93;;;8.03;;
60819;SDS011;46641;48.904;9.126;2024-03-17T10:08:54;10.63;;;9.00;;
60819;SDS011;46641;48.904;9.126;2024-03-17T10:13:46;8.57;;;7.77;;
60819;SDS011;46641;48.904;9.126;2024-03-17T10:18:39;12.43;;;10.43;;
60819;SDS011;46641;48.904;9.126;2024-03-17T10:23:29;9.13;;;8.33;;
60819;SDS011;46641;48.904;9.126;2024-03-17T10:28:20;8.17;;;7.47;;
60819;SDS011;46641;48.904;9.126;2024-03-17T10:33:21;9.13;;;8.33;;
60819;SDS011;46641;48.904;9.126;2024-03-17T10:38:12;8.43;;;7.40;;
60819;SDS011;46641;48.904;9.126;2024-03-17T10:43:03;10.57;;;8.37;;
60819;SDS011;46641;48.904;9.126;2024-03-17T10:47:53;8.57;;;7.67;;
60819;SDS011;46641;48.904;9.126;2024-03-17T10:52:44;8.33;;;7.53;;
60819;SDS011;46641;48.904;9.126;2024-03-17T11:02:27;7.27;;;6.67;;
60819;SDS011;46641;48.904;9.126;2024-03-17T11:07:26;7.17;;;5.87;;
60819;SDS011;46641;48.904;9.126;2024-03-17T11:17:35;8.30;;;7.53;;
60819;SDS011;46641;48.904;9.126;2024-03-17T11:22:44;7.65;;;6.85;;
60819;SDS011;46641;48.904;9.126;2024-03-17T11:27:41;6.27;;;5.67;;
60819;SDS011;46641;48.904;9.126;2024-03-17T11:32:31;6.17;;;5.57;;
60819;SDS011;46641;48.904;9.126;2024-03-17T11:37:42;8.30;;;6.10;;
60819;SDS011;46641;48.904;9.126;2024-03-17T11:42:33;6.73;;;5.70;;
60819;SDS011;46641;48.904;9.126;2024-03-17T11:47:32;5.60;;;5.10;;
60819;SDS011;46641;48.904;9.126;2024-03-17T11:52:24;5.50;;;4.87;;
60819;SDS011;46641;48.904;9.126;2024-03-17T11:57:20;5.77;;;5.27;;
60819;SDS011;46641;48.904;9.126;2024-03-17T12:02:19;5.37;;;4.87;;
60819;SDS011;46641;48.904;9.126;2024-03-17T12:07:13;5.00;;;4.50;;
60819;SDS011;46641;48.904;9.126;2024-03-17T12:12:26;6.23;;;4.97;;
60819;SDS011;46641;48.904;9.126;2024-03-17T12:17:24;5.30;;;4.80;;
60819;SDS011;46641;48.904;9.126;2024-03-17T12:22:19;6.10;;;5.50;;
60819;SDS011;46641;48.904;9.126;2024-03-17T12:27:18;5.20;;;4.70;;
60819;SDS011;46641;48.904;9.126;2024-03-17T12:37:01;4.80;;;4.37;;
60819;SDS011;46641;48.904;9.126;2024-03-17T12:42:08;4.60;;;4.20;;
60819;SDS011;46641;48.904;9.126;2024-03-17T12:47:03;5.30;;;4.63;;
60819;SDS011;46641;48.904;9.126;2024-03-17T12:51:55;5.00;;;4.10;;
60819;SDS011;46641;48.904;9.126;2024-03-17T12:56:46;4.37;;;4.07;;
60819;SDS011;46641;48.904;9.126;2024-03-17T13:02:00;4.13;;;3.77;;
60819;SDS011;46641;48.904;9.126;2024-03-17T13:06:51;5.20;;;4.63;;
60819;SDS011;46641;48.904;9.126;2024-03-17T13:11:42;4.40;;;4.00;;
60819;SDS011;46641;48.904;9.126;2024-03-17T13:16:32;5.03;;;4.53;;
60819;SDS011;46641;48.904;9.126;2024-03-17T13:21:22;4.73;;;4.33;;
60819;SDS011;46641;48.904;9.126;2024-03-17T13:26:13;5.00;;;4.50;;
60819;SDS011;46641;48.904;9.126;2024-03-17T13:31:03;4.60;;;4.20;;
60819;SDS011;46641;48.904;9.126;2024-03-17T13:35:55;3.50;;;3.10;;
60819;SDS011;46641;48.904;9.126;2024-03-17T13:40:46;5.90;;;5.33;;
60819;SDS011;46641;48.904;9.126;2024-03-17T13:45:40;4.73;;;4.33;;
60819;SDS011;46641;48.904;9.126;2024-03-17T13:50:32;5.40;;;4.90;;
60819;SDS011;46641;48.904;9.126;2024-03-17T13:55:24;4.87;;;4.23;;
60819;SDS011;46641;48.904;9.126;2024-03-17T14:00:15;4.00;;;3.70;;
60819;SDS011;46641;48.904;9.126;2024-03-17T14:05:06;4.37;;;3.83;;
60819;SDS011;46641;48.904;9.126;2024-03-17T14:09:57;4.23;;;3.87;;
60819;SDS011;46641;48.904;9.126;2024-03-17T14:14:48;3.83;;;3.53;;
60819;SDS011;46641;48.904;9.126;2024-03-17T14:19:38;4.30;;;3.50;;
60819;SDS011;46641;48.904;9.126;2024-03-17T14:24:28;3.90;;;3.50;;
60819;SDS011;46641;48.904;9.126;2024-03-17T14:29:19;4.68;;;3.35;;
60819;SDS011;46641;48.904;9.126;2024-03-17T14:34:09;3.80;;;3.50;;
60819;SDS011;46641;48.904;9.126;2024-03-17T14:39:01;4.13;;;3.67;;
60819;SDS011;46641;48.904;9.126;2024-03-17T14:43:51;4.33;;;3.83;;
60819;SDS011;46641;48.904;9.126;2024-03-17T14:48:41;4.37;;;3.10;;
60819;SDS011;46641;48.904;9.126;2024-03-17T14:53:33;3.87;;;3.47;;
60819;SDS011;46641;48.904;9.126;2024-03-17T14:58:23;4.97;;;4.00;;
60819;SDS011;46641;48.904;9.126;2024-03-17T15:03:13;4.37;;;3.87;;
60819;SDS011;46641;48.904;9.126;2024-03-17T15:08:04;4.83;;;3.70;;
60819;SDS011;46641;48.904;9.126;2024-03-17T15:12:54;4.50;;;4.10;;
60819;SDS011;46641;48.904;9.126;2024-03-17T15:17:45;8.20;;;7.40;;
60819;SDS011;46641;48.904;9.126;2024-03-17T15:22:35;4.23;;;3.60;;
60819;SDS011;46641;48.904;9.126;2024-03-17T15:27:25;5.30;;;4.30;;
60819;SDS011;46641;48.904;9.126;2024-03-17T15:32:16;5.93;;;4.07;;
60819;SDS011;46641;48.904;9.126;2024-03-17T15:37:06;4.07;;;3.67;;
60819;SDS011;46641;48.904;9.126;2024-03-17T15:41:58;4.80;;;3.60;;
60819;SDS011;46641;48.904;9.126;2024-03-17T15:46:48;5.03;;;3.75;;
60819;SDS011;46641;48.904;9.126;2024-03-17T15:51:39;4.07;;;3.77;;
60819;SDS011;46641;48.904;9.126;2024-03-17T15:56:29;3.78;;;3.40;;
60819;SDS011;46641;48.904;9.126;2024-03-17T16:01:19;4.22;;;3.70;;
60819;SDS011;46641;48.904;9.126;2024-03-17T16:06:13;3.72;;;3.35;;
60819;SDS011;46641;48.904;9.126;2024-03-17T16:11:06;4.13;;;3.73;;
60819;SDS011;46641;48.904;9.126;2024-03-17T16:15:59;3.53;;;3.30;;
60819;SDS011;46641;48.904;9.126;2024-03-17T16:25:42;4.77;;;4.27;;
60819;SDS011;46641;48.904;9.126;2024-03-17T16:30:32;4.30;;;3.70;;
60819;SDS011;46641;48.904;9.126;2024-03-17T16:35:22;4.60;;;3.67;;
60819;SDS011;46641;48.904;9.126;2024-03-17T16:40:13;3.57;;;3.27;;
60819;SDS011;46641;48.904;9.126;2024-03-17T16:45:04;3.70;;;3.37;;
60819;SDS011;46641;48.904;9.126;2024-03-17T16:49:55;3.37;;;3.07;;
60819;SDS011;46641;48.904;9.126;2024-03-17T16:54:46;5.10;;;3.87;;
60819;SDS011;46641;48.904;9.126;2024-03-17T16:59:38;4.03;;;3.47;;
60819;SDS011;46641;48.904;9.126;2024-03-17T17:04:28;4.67;;;3.80;;
60819;SDS011;46641;48.904;9.126;2024-03-17T17:09:18;6.28;;;3.92;;
60819;SDS011;46641;48.904;9.126;2024-03-17T17:14:09;4.20;;;3.77;;
60819;SDS011;46641;48.904;9.126;2024-03-17T17:19:00;5.23;;;4.50;;
60819;SDS011;46641;48.904;9.126;2024-03-17T17:23:54;8.47;;;6.30;;
60819;SDS011;46641;48.904;9.126;2024-03-17T17:28:44;6.33;;;5.23;;
60819;SDS011;46641;48.904;9.126;2024-03-17T17:33:34;9.53;;;6.97;;
60819;SDS011;46641;48.904;9.126;2024-03-17T17:38:26;5.40;;;4.40;;
60819;SDS011;46641;48.904;9.126;2024-03-17T17:43:18;5.93;;;4.40;;
60819;SDS011;46641;48.904;9.126;2024-03-17T17:48:08;4.17;;;3.67;;
60819;SDS011;46641;48.904;9.126;2024-03-17T17:52:58;3.40;;;3.10;;
60819;SDS011;46641;48.904;9.126;2024-03-17T17:57:48;4.65;;;3.35;;
60819;SDS011;46641;48.904;9.126;2024-03-17T18:02:39;3.78;;;3.33;;
60819;SDS011;46641;48.904;9.126;2024-03-17T18:07:29;3.00;;;2.80;;
60819;SDS011;46641;48.904;9.126;2024-03-17T18:12:20;3.60;;;3.20;;
60819;SDS011;46641;48.904;9.126;2024-03-17T18:17:10;7.10;;;4.60;;
60819;SDS011;46641;48.904;9.126;2024-03-17T18:22:01;4.73;;;3.80;;
60819;SDS011;46641;48.904;9.126;2024-03-17T18:26:53;3.93;;;3.53;;
60819;SDS011;46641;48.904;9.126;2024-03-17T18:31:43;5.73;;;4.70;;
60819;SDS011;46641;48.904;9.126;2024-03-17T18:36:33;4.67;;;4.03;;
60819;SDS011;46641;48.904;9.126;2024-03-17T18:41:24;4.10;;;3.80;;
60819;SDS011;46641;48.904;9.126;2024-03-17T18:46:15;5.20;;;4.17;;
60819;SDS011;46641;48.904;9.126;2024-03-17T18:51:07;5.93;;;4.40;;
60819;SDS011;46641;48.904;9.126;2024-03-17T18:56:01;5.63;;;4.27;;
60819;SDS011;46641;48.904;9.126;2024-03-17T19:00:53;3.73;;;3.43;;
60819;SDS011;46641;48.904;9.126;2024-03-17T19:05:43;5.20;;;4.13;;
60819;SDS011;46641;48.904;9.126;2024-03-17T19:10:35;3.10;;;2.90;;
60819;SDS011;46641;48.904;9.126;2024-03-17T19:15:26;4.87;;;4.40;;
60819;SDS011;46641;48.904;9.126;2024-03-17T19:20:16;4.20;;;3.87;;
60819;SDS011;46641;48.904;9.126;2024-03-17T19:25:06;4.27;;;3.67;;
60819;SDS011;46641;48.904;9.126;2024-03-17T19:29:59;4.20;;;3.60;;
60819;SDS011;46641;48.904;9.126;2024-03-17T19:34:49;4.10;;;3.67;;
60819;SDS011;46641;48.904;9.126;2024-03-17T19:39:39;3.83;;;3.53;;
60819;SDS011;46641;48.904;9.126;2024-03-17T19:44:30;3.67;;;3.03;;
60819;SDS011;46641;48.904;9.126;2024-03-17T19:49:21;5.13;;;3.70;;
60819;SDS011;46641;48.904;9.126;2024-03-17T19:54:12;5.83;;;3.43;;
60819;SDS011;46641;48.904;9.126;2024-03-17T19:59:03;3.63;;;3.33;;
60819;SDS011;46641;48.904;9.126;2024-03-17T20:03:53;4.27;;;3.50;;
60819;SDS011;46641;48.904;9.126;2024-03-17T20:08:43;2.70;;;2.50;;
60819;SDS011;46641;48.904;9.126;2024-03-17T20:13:34;5.90;;;4.40;;
60819;SDS011;46641;48.904;9.126;2024-03-17T20:18:24;3.87;;;3.47;;
60819;SDS011;46641;48.904;9.126;2024-03-17T20:23:14;5.60;;;4.30;;
60819;SDS011;46641;48.904;9.126;2024-03-17T20:28:05;5.87;;;5.10;;
60819;SDS011;46641;48.904;9.126;2024-03-17T20:32:57;6.50;;;5.50;;
60819;SDS011;46641;48.904;9.126;2024-03-17T20:37:49;5.40;;;4.90;;
60819;SDS011;46641;48.904;9.126;2024-03-17T20:42:41;5.60;;;5.00;;
60819;SDS011;46641;48.904;9.126;2024-03-17T20:47:31;5.30;;;4.80;;
60819;SDS011;46641;48.904;9.126;2024-03-17T20:52:22;5.00;;;4.60;;
60819;SDS011;46641;48.904;9.126;2024-03-17T20:57:13;5.93;;;5.40;;
60819;SDS011;46641;48.904;9.126;2024-03-17T21:02:03;6.10;;;5.40;;
60819;SDS011;46641;48.904;9.126;2024-03-17T21:06:55;6.07;;;5.47;;
60819;SDS011;46641;48.904;9.126;2024-03-17T21:11:48;7.00;;;5.70;;
60819;SDS011;46641;48.904;9.126;2024-03-17T21:16:39;6.43;;;5.83;;
60819;SDS011;46641;48.904;9.126;2024-03-17T21:21:29;6.33;;;5.70;;
60819;SDS011;46641;48.904;9.126;2024-03-17T21:26:20;7.03;;;4.73;;
60819;SDS011;46641;48.904;9.126;2024-03-17T21:31:10;4.90;;;4.47;;
60819;SDS011;46641;48.904;9.126;2024-03-17T21:36:07;6.27;;;4.33;;
60819;SDS011;46641;48.904;9.126;2024-03-17T21:40:57;6.00;;;3.83;;
60819;SDS011;46641;48.904;9.126;2024-03-17T21:45:47;6.22;;;5.05;;
60819;SDS011;46641;48.904;9.126;2024-03-17T21:50:38;7.60;;;5.40;;
60819;SDS011;46641;48.904;9.126;2024-03-17T21:55:28;6.65;;;5.35;;
60819;SDS011;46641;48.904;9.126;2024-03-17T22:00:18;5.80;;;5.27;;
60819;SDS011;46641;48.904;9.126;2024-03-17T22:05:11;6.37;;;5.77;;
60819;SDS011;46641;48.904;9.126;2024-03-17T22:10:01;5.80;;;5.20;;
60819;SDS011;46641;48.904;9.126;2024-03-17T22:14:56;6.33;;;5.73;;
60819;SDS011;46641;48.904;9.126;2024-03-17T22:19:47;7.53;;;5.53;;
60819;SDS011;46641;48.904;9.126;2024-03-17T22:24:37;6.00;;;5.40;;
60819;SDS011;46641;48.904;9.126;2024-03-17T22:29:27;7.10;;;6.27;;
60819;SDS011;46641;48.904;9.126;2024-03-17T22:34:18;6.80;;;5.57;;
60819;SDS011;46641;48.904;9.126;2024-03-17T22:39:09;6.53;;;5.70;;
60819;SDS011;46641;48.904;9.126;2024-03-17T22:44:03;6.07;;;5.57;;
60819;SDS011;46641;48.904;9.126;2024-03-17T22:48:53;6.00;;;5.47;;
60819;SDS011;46641;48.904;9.126;2024-03-17T22:53:44;6.67;;;5.43;;
60819;SDS011;46641;48.904;9.126;2024-03-17T22:58:35;6.53;;;5.93;;
60819;SDS011;46641;48.904;9.126;2024-03-17T23:03:36;7.40;;;6.77;;
60819;SDS011;46641;48.904;9.126;2024-03-17T23:08:29;7.90;;;7.10;;
60819;SDS011;46641;48.904;9.126;2024-03-17T23:13:20;7.30;;;6.67;;
60819;SDS011;46641;48.904;9.126;2024-03-17T23:18:11;6.77;;;6.17;;
60819;SDS011;46641;48.904;9.126;2024-03-17T23:23:03;6.70;;;6.20;;
60819;SDS011;46641;48.904;9.126;2024-03-17T23:27:57;7.60;;;6.70;;
60819;SDS011;46641;48.904;9.126;2024-03-17T23:32:48;6.28;;;5.78;;
60819;SDS011;46641;48.904;9.126;2024-03-17T23:37:38;6.47;;;5.77;;
60819;SDS011;46641;48.904;9.126;2024-03-17T23:42:29;6.83;;;6.17;;
60819;SDS011;46641;48.904;9.126;2024-03-17T23:47:19;7.13;;;6.53;;
60819;SDS011;46641;48.904;9.126;2024-03-17T23:52:10;7.23;;;6.37;;
60819;SDS011;46641;48.904;9.126;2024-03-17T23:57:00;7.20;;;6.50;;
